Time;durP1;ratioP1;P1;durP2;ratioP2;P2;SDS_P1;SDS_P2;PMS_P1;PMS_P2;Temp;Humidity;BMP_temperature;BMP_pressure;BME280_temperature;BME280_humidity;BME280_pressure;Samples;Min_cycle;Max_cycle;Signal;HPM_P1;HPM_P2
2021/05/05 00:01:14;;;;;;;20.38;3.28;;;6.20;99.90;;;;;;6100538;23;20032;-84
2021/05/05 00:03:41;;;;;;;22.67;3.33;;;6.20;99.90;;;;;;6150925;23;20054;-84
2021/05/05 00:06:09;;;;;;;18.25;3.38;;;6.20;99.90;;;;;;6127116;23;20021;-84
2021/05/05 00:08:43;;;;;;;15.88;1.90;;;6.20;99.90;;;;;;6098990;23;20026;-84
2021/05/05 00:11:22;;;;;;;;;;;;;;;;;;;;;
2021/05/05 00:13:51;;;;;;;25.45;2.72;;;6.20;99.90;;;;;;6121960;23;20589;-85
2021/05/05 00:16:18;;;;;;;12.65;2.13;;;6.30;99.90;;;;;;6120697;23;20475;-84
2021/05/05 00:18:44;;;;;;;16.17;2.55;;;6.10;99.90;;;;;;6144449;23;20014;-84
2021/05/05 00:21:10;;;;;;;17.63;2.35;;;6.00;99.90;;;;;;6095682;23;20018;-85
2021/05/05 00:23:36;;;;;;;17.95;3.00;;;5.90;99.90;;;;;;6096604;23;20014;-84
2021/05/05 00:26:02;;;;;;;17.73;3.45;;;5.90;99.90;;;;;;6094940;23;20018;-85
2021/05/05 00:28:28;;;;;;;27.52;2.58;;;5.80;99.90;;;;;;6169045;23;20017;-83
2021/05/05 00:30:54;;;;;;;16.27;3.70;;;5.80;99.90;;;;;;6167958;23;20100;-84
2021/05/05 00:33:20;;;;;;;20.90;2.67;;;5.80;99.90;;;;;;6094951;23;20476;-84
2021/05/05 00:35:46;;;;;;;17.48;2.08;;;5.80;99.90;;;;;;6095717;23;20464;-84
2021/05/05 00:38:12;;;;;;;14.77;2.65;;;5.80;99.90;;;;;;6120260;23;20022;-84
2021/05/05 00:40:37;;;;;;;17.48;1.70;;;5.80;99.90;;;;;;6119324;23;20014;-85
2021/05/05 00:43:06;;;;;;;18.10;2.63;;;5.90;99.90;;;;;;6095940;23;20409;-84
2021/05/05 00:45:32;;;;;;;20.00;2.83;;;5.80;99.90;;;;;;6094973;23;20017;-84
2021/05/05 00:47:58;;;;;;;19.80;2.92;;;5.80;99.90;;;;;;6120051;23;20109;-85
2021/05/05 00:50:24;;;;;;;14.90;2.60;;;5.90;99.90;;;;;;6070298;23;20114;-83
2021/05/05 00:52:50;;;;;;;26.70;3.72;;;5.90;99.90;;;;;;6096252;23;20014;-85
2021/05/05 00:55:16;;;;;;;19.05;2.92;;;5.90;99.90;;;;;;6144294;23;20040;-84
2021/05/05 00:57:43;;;;;;;20.27;2.58;;;5.90;99.90;;;;;;6121572;23;20096;-83
2021/05/05 01:00:10;;;;;;;17.90;2.38;;;5.90;99.90;;;;;;6119210;23;20014;-84
2021/05/05 01:02:37;;;;;;;18.85;2.90;;;6.00;99.90;;;;;;6120267;23;20017;-85
2021/05/05 01:05:05;;;;;;;18.90;2.80;;;6.00;99.90;;;;;;6119066;23;20065;-84
2021/05/05 01:07:34;;;;;;;23.25;4.55;;;6.00;99.90;;;;;;6121134;23;20018;-85
2021/05/05 01:10:02;;;;;;;16.80;3.17;;;6.00;99.90;;;;;;6143884;23;20026;-84
2021/05/05 01:12:28;;;;;;;22.50;2.70;;;6.00;99.90;;;;;;6119283;23;20016;-84
2021/05/05 01:14:54;;;;;;;15.35;3.42;;;6.10;99.90;;;;;;6144718;23;20025;-84
2021/05/05 01:17:20;;;;;;;17.92;3.40;;;6.00;99.90;;;;;;6095527;23;20013;-85
2021/05/05 01:19:45;;;;;;;18.30;2.88;;;6.00;99.90;;;;;;6095107;23;20477;-85
2021/05/05 01:22:11;;;;;;;19.65;3.08;;;6.00;99.90;;;;;;6094343;23;20048;-84
2021/05/05 01:24:37;;;;;;;20.02;3.13;;;6.00;99.90;;;;;;6095429;23;20014;-84
2021/05/05 01:27:05;;;;;;;17.90;2.88;;;6.00;99.90;;;;;;6118772;23;20025;-85
2021/05/05 01:29:32;;;;;;;18.50;2.78;;;6.10;99.90;;;;;;6144320;23;20018;-84
2021/05/05 01:31:58;;;;;;;21.35;2.97;;;6.00;99.90;;;;;;6144308;23;20018;-84
2021/05/05 01:34:24;;;;;;;16.67;2.22;;;5.90;99.90;;;;;;6119662;23;20098;-84
2021/05/05 01:36:50;;;;;;;14.73;2.33;;;5.90;99.90;;;;;;6143761;23;20024;-83
2021/05/05 01:39:18;;;;;;;16.85;2.30;;;5.80;99.90;;;;;;6143913;23;20022;-84
2021/05/05 01:41:45;;;;;;;12.77;2.03;;;5.80;99.90;;;;;;6143286;23;20096;-85
2021/05/05 01:44:11;;;;;;;20.95;2.83;;;5.80;99.90;;;;;;6094999;23;20072;-84
2021/05/05 01:46:46;;;;;;;13.18;2.50;;;5.80;99.90;;;;;;6119580;23;20456;-83
2021/05/05 01:49:23;;;;;;;23.63;2.95;;;5.80;99.90;;;;;;6118891;23;20180;-85
2021/05/05 01:51:51;;;;;;;12.85;2.33;;;5.70;99.90;;;;;;6117953;23;20018;-83
2021/05/05 01:54:17;;;;;;;18.73;2.08;;;5.60;99.90;;;;;;6121286;23;20037;-84
2021/05/05 01:56:44;;;;;;;19.77;2.42;;;5.60;99.90;;;;;;6143809;23;20025;-84
2021/05/05 01:59:10;;;;;;;16.27;1.77;;;5.60;99.90;;;;;;6094733;23;20010;-84
2021/05/05 02:01:36;;;;;;;15.43;1.83;;;5.70;99.90;;;;;;6142485;23;20028;-84
2021/05/05 02:04:02;;;;;;;12.88;2.17;;;5.60;99.90;;;;;;6120702;23;20100;-83
2021/05/05 02:06:32;;;;;;;15.00;2.60;;;5.60;99.90;;;;;;6119611;23;20024;-84
2021/05/05 02:08:59;;;;;;;24.05;2.88;;;5.70;99.90;;;;;;6094168;23;20139;-84
2021/05/05 02:11:26;;;;;;;20.90;3.50;;;5.70;99.90;;;;;;6142796;23;20140;-84
2021/05/05 02:13:53;;;;;;;16.95;3.92;;;5.70;99.90;;;;;;6143661;23;20021;-84
2021/05/05 02:16:19;;;;;;;17.95;3.05;;;5.70;99.90;;;;;;6143701;23;20017;-84
2021/05/05 02:18:45;;;;;;;16.63;2.70;;;5.70;99.90;;;;;;6094082;23;20025;-84
2021/05/05 02:21:11;;;;;;;21.20;4.20;;;5.80;99.90;;;;;;6093757;23;20018;-83
2021/05/05 02:23:38;;;;;;;23.75;3.28;;;5.80;99.90;;;;;;6119767;23;20021;-84
2021/05/05 02:26:04;;;;;;;23.67;3.63;;;5.90;99.90;;;;;;6094299;23;20018;-84
2021/05/05 02:28:31;;;;;;;30.35;4.38;;;5.90;99.90;;;;;;6094666;23;20010;-84
2021/05/05 02:30:58;;;;;;;31.25;4.47;;;5.90;99.90;;;;;;6118278;23;20021;-84
2021/05/05 02:33:25;;;;;;;23.02;4.53;;;6.00;99.90;;;;;;6118686;23;20490;-85
2021/05/05 02:35:51;;;;;;;17.88;3.47;;;6.00;99.90;;;;;;6143364;23;20014;-84
2021/05/05 02:38:17;;;;;;;28.90;3.83;;;6.00;99.90;;;;;;6095521;23;20024;-84
2021/05/05 02:40:44;;;;;;;28.50;4.18;;;6.00;99.90;;;;;;6117491;23;20041;-84
2021/05/05 02:43:10;;;;;;;21.52;3.55;;;6.10;99.90;;;;;;6118910;23;20720;-84
2021/05/05 02:45:36;;;;;;;27.38;3.70;;;6.10;99.90;;;;;;6095293;23;20021;-84
2021/05/05 02:48:02;;;;;;;30.63;3.78;;;6.10;99.90;;;;;;6118750;23;20052;-84
2021/05/05 02:50:28;;;;;;;32.15;4.68;;;6.20;99.90;;;;;;6094061;23;20348;-84
2021/05/05 02:52:54;;;;;;;28.13;4.03;;;6.20;99.90;;;;;;6119040;23;20020;-84
2021/05/05 02:55:19;;;;;;;29.70;3.78;;;6.10;99.90;;;;;;6096049;23;20017;-85
2021/05/05 02:57:45;;;;;;;24.73;4.60;;;6.20;99.90;;;;;;6094461;23;20049;-84
2021/05/05 03:00:12;;;;;;;25.70;4.25;;;6.10;99.90;;;;;;6167534;23;20076;-83
2021/05/05 03:02:38;;;;;;;14.23;2.65;;;6.10;99.90;;;;;;6094970;23;20010;-84
2021/05/05 03:05:06;;;;;;;16.70;3.83;;;6.20;99.90;;;;;;6118904;23;20014;-84
2021/05/05 03:07:31;;;;;;;17.33;3.17;;;6.10;99.90;;;;;;6143677;23;20125;-84
2021/05/05 03:09:57;;;;;;;19.90;2.40;;;6.10;99.90;;;;;;6143985;23;20460;-84
2021/05/05 03:12:24;;;;;;;19.27;2.83;;;6.00;99.90;;;;;;6142851;23;20026;-84
2021/05/05 03:14:50;;;;;;;14.48;2.72;;;6.00;99.90;;;;;;6117726;23;20020;-84
2021/05/05 03:17:16;;;;;;;17.77;2.92;;;6.00;99.90;;;;;;6144222;23;20014;-84
2021/05/05 03:19:42;;;;;;;17.20;2.40;;;6.00;99.90;;;;;;6094107;23;20355;-84
2021/05/05 03:22:08;;;;;;;20.55;1.85;;;6.00;99.90;;;;;;6142837;23;20017;-84
2021/05/05 03:24:34;;;;;;;14.38;2.17;;;5.90;99.90;;;;;;6094736;23;20444;-84
2021/05/05 03:26:59;;;;;;;21.52;2.53;;;5.90;99.90;;;;;;6094839;23;20025;-84
2021/05/05 03:29:25;;;;;;;20.33;2.55;;;5.90;99.90;;;;;;6069906;23;20018;-84
2021/05/05 03:31:52;;;;;;;18.67;2.28;;;5.90;99.90;;;;;;6142101;23;20026;-85
2021/05/05 03:34:18;;;;;;;16.40;2.13;;;5.90;99.90;;;;;;6143065;23;20037;-84
2021/05/05 03:36:45;;;;;;;11.38;2.30;;;5.90;99.90;;;;;;6144142;23;20085;-84
2021/05/05 03:39:11;;;;;;;24.25;3.42;;;5.90;99.90;;;;;;6093787;23;20499;-84
2021/05/05 03:41:37;;;;;;;16.08;2.72;;;5.90;99.90;;;;;;6093393;23;20017;-85
2021/05/05 03:44:04;;;;;;;21.80;3.22;;;5.90;99.90;;;;;;6117922;23;20014;-84
2021/05/05 03:46:30;;;;;;;20.60;2.80;;;5.90;99.90;;;;;;6094884;23;20025;-85
2021/05/05 03:48:57;;;;;;;19.58;4.00;;;6.00;99.90;;;;;;6093759;23;20014;-84
2021/05/05 03:51:24;;;;;;;19.13;3.78;;;6.00;99.90;;;;;;6094027;23;20025;-84
2021/05/05 03:53:50;;;;;;;18.23;3.00;;;6.00;99.90;;;;;;6143752;23;20010;-85
2021/05/05 03:56:15;;;;;;;21.35;3.10;;;6.00;99.90;;;;;;6094308;23;21800;-85
2021/05/05 03:58:41;;;;;;;14.52;2.97;;;6.00;99.90;;;;;;6094808;23;20474;-84
2021/05/05 04:01:07;;;;;;;16.15;2.55;;;6.00;99.90;;;;;;6144201;23;20018;-84
2021/05/05 04:03:33;;;;;;;23.20;3.63;;;6.00;99.90;;;;;;6119187;23;20010;-85
2021/05/05 04:05:59;;;;;;;22.10;3.42;;;6.10;99.90;;;;;;6096755;23;20448;-84
2021/05/05 04:08:24;;;;;;;26.85;2.85;;;6.10;99.90;;;;;;6096175;23;20106;-85
2021/05/05 04:10:50;;;;;;;24.88;3.40;;;6.10;99.90;;;;;;6120274;23;20079;-84
2021/05/05 04:13:17;;;;;;;25.77;3.67;;;6.10;99.90;;;;;;6144061;23;20387;-85
2021/05/05 04:15:42;;;;;;;24.52;3.45;;;6.10;99.90;;;;;;6120174;23;20014;-85
2021/05/05 04:18:08;;;;;;;17.35;3.20;;;6.10;99.90;;;;;;6120269;23;20045;-84
2021/05/05 04:20:37;;;;;;;24.08;4.05;;;6.10;99.90;;;;;;6119826;23;20065;-84
2021/05/05 04:23:03;;;;;;;21.35;2.95;;;6.10;99.90;;;;;;6169932;23;20351;-84
2021/05/05 04:25:29;;;;;;;24.08;2.85;;;6.10;99.90;;;;;;6096484;23;20037;-85
2021/05/05 04:27:55;;;;;;;20.95;3.08;;;6.10;99.90;;;;;;6144875;23;20467;-84
2021/05/05 04:30:22;;;;;;;23.70;3.45;;;6.00;99.90;;;;;;6144005;23;20018;-85
2021/05/05 04:32:51;;;;;;;20.70;3.95;;;6.10;99.90;;;;;;6144740;23;20017;-85
2021/05/05 04:35:18;;;;;;;27.70;4.53;;;6.10;99.90;;;;;;6095630;23;20109;-85
2021/05/05 04:37:44;;;;;;;23.75;3.38;;;6.10;99.90;;;;;;6145222;23;20018;-84
2021/05/05 04:40:10;;;;;;;19.02;3.30;;;6.10;99.90;;;;;;6168596;23;20805;-84
2021/05/05 04:42:37;;;;;;;25.02;3.55;;;6.10;99.90;;;;;;6095527;23;20452;-84
2021/05/05 04:45:05;;;;;;;22.92;3.00;;;6.10;99.90;;;;;;6121511;23;20048;-84
2021/05/05 04:47:33;;;;;;;19.75;3.47;;;6.20;99.90;;;;;;6145816;23;20180;-85
2021/05/05 04:49:59;;;;;;;17.80;3.17;;;6.20;99.90;;;;;;6121595;23;20410;-85
2021/05/05 04:52:24;;;;;;;30.17;4.55;;;6.20;99.90;;;;;;6094727;23;20017;-85
2021/05/05 04:54:50;;;;;;;16.45;2.35;;;6.30;99.90;;;;;;6096029;23;20503;-85
2021/05/05 04:57:16;;;;;;;18.33;2.60;;;6.10;99.90;;;;;;6096662;23;20399;-84
2021/05/05 04:59:42;;;;;;;23.52;2.50;;;6.00;99.90;;;;;;6144496;23;20022;-84
2021/05/05 05:02:08;;;;;;;22.80;2.63;;;5.90;99.90;;;;;;6119019;23;20010;-83
2021/05/05 05:04:37;;;;;;;9.68;1.77;;;5.90;99.90;;;;;;6094482;23;20473;-84
2021/05/05 05:07:05;;;;;;;13.00;1.90;;;5.80;99.90;;;;;;6143610;23;20072;-84
2021/05/05 05:09:31;;;;;;;11.15;1.73;;;5.80;99.90;;;;;;6144170;23;20040;-84
2021/05/05 05:11:57;;;;;;;15.27;1.88;;;5.70;99.90;;;;;;6144716;23;20068;-84
2021/05/05 05:14:23;;;;;;;12.00;2.17;;;5.70;99.90;;;;;;6119627;23;20029;-85
2021/05/05 05:16:49;;;;;;;22.75;2.75;;;5.70;99.90;;;;;;6144583;23;20014;-84
2021/05/05 05:19:15;;;;;;;20.63;3.08;;;5.80;99.90;;;;;;6120167;23;20093;-85
2021/05/05 05:21:41;;;;;;;25.98;3.70;;;5.90;99.90;;;;;;6118919;23;20021;-84
2021/05/05 05:24:07;;;;;;;24.38;4.50;;;5.90;99.90;;;;;;6095384;23;20321;-83
2021/05/05 05:26:33;;;;;;;27.98;3.50;;;6.00;99.90;;;;;;6120918;23;20033;-83
2021/05/05 05:29:00;;;;;;;16.98;3.13;;;6.00;99.90;;;;;;6168959;23;20021;-83
2021/05/05 05:31:26;;;;;;;19.63;3.15;;;6.10;99.90;;;;;;6094300;23;20018;-84
2021/05/05 05:33:52;;;;;;;20.35;3.25;;;6.10;99.90;;;;;;6120226;23;20347;-83
2021/05/05 05:36:18;;;;;;;17.30;2.78;;;6.10;99.90;;;;;;6144622;23;20014;-84
2021/05/05 05:38:43;;;;;;;17.65;2.70;;;6.10;99.90;;;;;;6119967;23;20045;-84
2021/05/05 05:41:09;;;;;;;15.55;2.10;;;6.10;99.90;;;;;;6095483;23;20344;-84
2021/05/05 05:43:35;;;;;;;18.63;2.55;;;6.10;99.90;;;;;;6071544;23;20018;-83
2021/05/05 05:46:01;;;;;;;26.67;3.20;;;6.20;99.90;;;;;;6144437;23;20026;-84
2021/05/05 05:48:27;;;;;;;18.10;2.88;;;6.10;99.90;;;;;;6120659;23;20049;-84
2021/05/05 05:50:53;;;;;;;24.38;3.05;;;6.20;99.90;;;;;;6095461;23;20025;-84
2021/05/05 05:53:19;;;;;;;18.13;3.08;;;6.20;99.90;;;;;;6096312;23;20064;-83
2021/05/05 05:55:44;;;;;;;20.85;3.22;;;6.20;99.90;;;;;;6096071;23;20013;-85
2021/05/05 05:58:13;;;;;;;19.63;2.90;;;6.30;99.90;;;;;;6095950;23;20825;-85
2021/05/05 06:00:39;;;;;;;21.05;2.83;;;6.30;99.90;;;;;;6119344;23;20080;-82
2021/05/05 06:03:06;;;;;;;18.48;3.22;;;6.40;99.90;;;;;;6095873;23;20376;-84
2021/05/05 06:05:38;;;;;;;24.13;2.95;;;6.50;99.90;;;;;;6094488;23;20050;-84
2021/05/05 06:08:04;;;;;;;30.98;3.88;;;6.50;99.90;;;;;;6095570;23;20451;-85
2021/05/05 06:10:30;;;;;;;23.20;3.20;;;6.60;99.90;;;;;;6142581;23;20022;-84
2021/05/05 06:12:56;;;;;;;21.33;2.97;;;6.60;99.90;;;;;;6095044;23;20073;-85
2021/05/05 06:15:23;;;;;;;29.30;4.63;;;6.60;99.90;;;;;;6118576;23;20021;-85
2021/05/05 06:17:49;;;;;;;22.52;2.60;;;6.60;99.90;;;;;;6120317;23;20010;-84
2021/05/05 06:20:16;;;;;;;20.17;2.58;;;6.70;99.90;;;;;;6096494;23;20348;-84
2021/05/05 06:22:42;;;;;;;18.20;3.33;;;6.70;99.90;;;;;;6121445;23;20049;-84
2021/05/05 06:25:09;;;;;;;19.77;2.80;;;6.80;99.90;;;;;;6071825;23;20089;-84
2021/05/05 06:27:36;;;;;;;21.65;3.42;;;6.80;99.90;;;;;;6095588;23;20025;-84
2021/05/05 06:30:03;;;;;;;14.35;2.55;;;6.80;99.90;;;;;;6119741;23;20010;-83
2021/05/05 06:32:29;;;;;;;20.85;3.15;;;6.90;99.90;;;;;;6095132;23;20114;-83
2021/05/05 06:34:55;;;;;;;28.02;3.22;;;6.90;99.90;;;;;;6095375;23;20067;-85
2021/05/05 06:37:22;;;;;;;27.45;2.95;;;7.00;99.90;;;;;;6169397;23;20076;-83
2021/05/05 06:39:49;;;;;;;20.35;2.95;;;7.00;99.90;;;;;;6120346;23;20452;-86
2021/05/05 06:42:15;;;;;;;15.05;2.90;;;6.90;99.90;;;;;;6143196;23;20016;-85
2021/05/05 06:44:41;;;;;;;24.73;2.70;;;7.10;99.90;;;;;;6119656;23;20014;-83
2021/05/05 06:47:07;;;;;;;19.33;3.33;;;7.10;99.90;;;;;;6144169;23;20418;-84
2021/05/05 06:49:34;;;;;;;26.05;3.35;;;7.20;99.90;;;;;;6144362;23;20014;-84
2021/05/05 06:52:01;;;;;;;29.52;4.15;;;7.20;99.90;;;;;;6121265;23;20344;-85
2021/05/05 06:54:28;;;;;;;22.67;3.67;;;7.00;99.90;;;;;;6094835;23;20010;-86
2021/05/05 06:56:53;;;;;;;26.00;3.67;;;6.90;99.90;;;;;;6095377;23;20014;-84
2021/05/05 06:59:19;;;;;;;22.95;3.65;;;6.80;99.90;;;;;;6071025;23;20017;-84
2021/05/05 07:01:48;;;;;;;16.88;3.13;;;6.80;99.90;;;;;;6096435;23;20014;-85
2021/05/05 07:04:14;;;;;;;15.30;2.70;;;6.90;99.90;;;;;;6168332;23;20024;-86
2021/05/05 07:06:40;;;;;;;18.90;3.45;;;7.00;99.90;;;;;;6095598;23;20017;-86
2021/05/05 07:09:09;;;;;;;20.95;3.08;;;7.10;99.90;;;;;;6168156;23;20173;-85
2021/05/05 07:11:37;;;;;;;20.52;2.95;;;7.20;99.90;;;;;;6094878;23;20018;-85
2021/05/05 07:14:04;;;;;;;22.85;3.65;;;7.30;99.90;;;;;;6144136;23;20018;-85
2021/05/05 07:16:30;;;;;;;16.67;2.90;;;7.20;99.90;;;;;;6120297;23;20106;-85
2021/05/05 07:18:56;;;;;;;15.48;2.67;;;7.30;99.90;;;;;;6092883;23;20527;-85
2021/05/05 07:21:23;;;;;;;15.20;2.00;;;7.30;99.90;;;;;;6137686;23;20344;-85
2021/05/05 07:23:48;;;;;;;10.93;2.30;;;7.40;99.90;;;;;;6140657;23;20021;-85
2021/05/05 07:26:15;;;;;;;13.23;1.70;;;7.40;99.90;;;;;;6093159;23;20010;-86
2021/05/05 07:28:41;;;;;;;9.95;1.67;;;7.40;99.90;;;;;;6116410;23;20416;-86
2021/05/05 07:31:07;;;;;;;8.80;1.50;;;7.40;99.90;;;;;;6117036;23;20021;-85
2021/05/05 07:33:35;;;;;;;14.82;2.72;;;7.40;99.90;;;;;;6142912;23;20106;-86
2021/05/05 07:36:09;;;;;;;12.40;2.22;;;7.50;99.90;;;;;;6141976;23;20033;-86
2021/05/05 07:38:47;;;;;;;11.48;2.70;;;7.50;99.90;;;;;;6119842;23;20026;-84
2021/05/05 07:49:11;;;;;;;11.70;1.98;;;5.40;99.90;;;;;;6102884;23;20408;-85
2021/05/05 07:51:37;;;;;;;9.05;1.00;;;5.20;99.90;;;;;;6143826;23;20057;-84
2021/05/05 07:54:03;;;;;;;4.22;1.20;;;5.20;99.90;;;;;;6096041;23;20010;-84
2021/05/05 07:56:29;;;;;;;8.93;1.15;;;5.20;99.90;;;;;;6146394;23;20014;-84
2021/05/05 07:59:00;;;;;;;12.02;1.42;;;5.30;99.90;;;;;;6119990;23;20166;-84
2021/05/05 08:01:26;;;;;;;16.20;1.75;;;5.40;99.90;;;;;;6143673;23;20037;-83
2021/05/05 08:03:52;;;;;;;17.77;2.30;;;5.60;99.90;;;;;;6119943;23;20010;-84
2021/05/05 08:06:18;;;;;;;20.17;2.42;;;5.80;99.90;;;;;;6118100;23;20018;-85
2021/05/05 08:08:44;;;;;;;19.35;3.10;;;6.00;99.90;;;;;;6143132;23;20020;-86
2021/05/05 08:11:10;;;;;;;16.05;2.40;;;6.20;99.90;;;;;;6094829;23;20014;-86
2021/05/05 08:13:35;;;;;;;16.02;2.33;;;6.30;99.90;;;;;;6094883;23;20530;-86
2021/05/05 08:16:03;;;;;;;19.27;2.97;;;6.30;99.90;;;;;;6096868;23;20014;-86
2021/05/05 08:18:29;;;;;;;16.52;2.50;;;6.20;99.90;;;;;;6145536;23;20022;-86
2021/05/05 08:20:55;;;;;;;24.70;3.95;;;6.10;99.90;;;;;;6095700;23;20069;-86
2021/05/05 08:23:21;;;;;;;18.13;3.25;;;6.20;99.90;;;;;;6170081;23;20049;-86
2021/05/05 08:25:47;;;;;;;19.83;2.60;;;6.20;99.90;;;;;;6097257;23;20018;-86
2021/05/05 08:28:13;;;;;;;22.92;2.63;;;6.20;99.90;;;;;;6095982;23;20014;-84
2021/05/05 08:30:39;;;;;;;25.33;3.92;;;6.20;99.90;;;;;;6096000;23;20025;-84
2021/05/05 08:33:05;;;;;;;22.45;3.30;;;6.10;99.90;;;;;;6097273;23;20014;-83
2021/05/05 08:35:31;;;;;;;29.15;3.58;;;6.20;99.90;;;;;;6120219;23;20018;-83
2021/05/05 08:37:57;;;;;;;24.70;3.53;;;6.30;99.90;;;;;;6145074;23;20585;-86
2021/05/05 08:40:23;;;;;;;30.10;4.28;;;6.40;99.90;;;;;;6096181;23;20156;-86
2021/05/05 08:42:49;;;;;;;27.55;4.53;;;6.50;99.90;;;;;;6096590;23;20021;-86
2021/05/05 08:45:23;;;;;;;30.58;5.57;;;6.50;99.90;;;;;;6120040;23;20021;-86
2021/05/05 08:47:51;;;;;;;23.67;3.45;;;6.60;99.90;;;;;;6146645;23;20020;-86
2021/05/05 08:50:19;;;;;;;22.00;3.25;;;6.60;99.90;;;;;;6145766;23;20456;-85
2021/05/05 08:52:45;;;;;;;24.77;2.90;;;6.50;99.90;;;;;;6145285;23;20012;-86
2021/05/05 08:55:13;;;;;;;25.25;3.28;;;6.50;99.90;;;;;;6123003;23;20402;-87
2021/05/05 08:57:38;;;;;;;17.67;4.30;;;6.40;99.90;;;;;;6141733;23;20013;-85
2021/05/05 09:00:10;;;;;;;24.63;3.03;;;6.40;99.90;;;;;;6095922;23;20014;-84
2021/05/05 09:02:36;;;;;;;22.77;3.45;;;6.50;99.90;;;;;;6120082;23;20411;-86
2021/05/05 09:05:07;;;;;;;13.98;2.95;;;6.60;99.90;;;;;;6120790;23;20526;-87
2021/05/05 09:07:35;;;;;;;16.42;1.90;;;6.40;99.90;;;;;;6145123;23;20010;-85
2021/05/05 09:10:10;;;;;;;13.80;1.90;;;6.50;99.90;;;;;;6145230;23;20041;-88
2021/05/05 09:12:38;;;;;;;15.43;2.22;;;6.50;99.90;;;;;;6145892;23;20014;-85
2021/05/05 09:15:06;;;;;;;12.90;2.33;;;6.50;99.90;;;;;;6096993;23;20018;-86
2021/05/05 09:17:37;;;;;;;13.93;2.40;;;6.60;99.90;;;;;;6122132;23;20014;-87
2021/05/05 09:20:06;;;;;;;14.30;2.63;;;6.70;99.90;;;;;;6147028;23;20032;-88
2021/05/05 09:22:43;;;;;;;20.92;3.25;;;6.60;99.90;;;;;;6097728;23;20246;-88
2021/05/05 09:25:11;;;;;;;11.57;1.85;;;6.60;99.90;;;;;;6097362;23;20767;-87
2021/05/05 09:27:38;;;;;;;5.43;1.10;;;6.40;99.90;;;;;;6146825;23;20009;-88
2021/05/05 09:30:22;;;;;;;15.02;2.70;;;6.20;99.90;;;;;;6146446;23;20014;-89
2021/05/05 09:32:53;;;;;;;9.75;1.58;;;6.00;99.90;;;;;;6096940;23;20021;-87
2021/05/05 09:35:33;;;;;;;17.10;4.32;;;6.00;99.90;;;;;;6146181;23;20025;-88
2021/05/05 09:38:10;;;;;;;14.02;3.30;;;6.10;99.90;;;;;;6123479;23;20558;-86
2021/05/05 09:40:52;;;;;;;29.77;2.95;;;6.20;99.90;;;;;;6143001;23;20014;-85
2021/05/05 09:43:19;;;;;;;18.25;2.42;;;6.30;99.90;;;;;;6095006;23;20352;-86
2021/05/05 09:45:45;;;;;;;20.52;3.03;;;6.40;99.90;;;;;;6122271;23;20014;-86
2021/05/05 09:48:12;;;;;;;26.90;3.38;;;6.70;99.90;;;;;;6146686;23;20022;-87
2021/05/05 09:50:45;;;;;;;27.45;4.07;;;6.90;99.90;;;;;;6145635;23;20010;-87
2021/05/05 09:53:15;;;;;;;21.83;3.70;;;6.90;99.90;;;;;;6123107;23;20020;-85
2021/05/05 09:55:43;;;;;;;23.35;3.45;;;7.00;99.90;;;;;;6145769;23;20049;-84
2021/05/05 09:58:30;;;;;;;22.45;3.80;;;7.10;99.90;;;;;;6096748;23;20092;-85
2021/05/05 10:01:09;;;;;;;25.85;4.05;;;7.20;99.90;;;;;;6121072;23;20014;-85
2021/05/05 10:03:41;;;;;;;19.20;3.20;;;7.40;99.90;;;;;;6144440;23;20042;-87
2021/05/05 10:06:23;;;;;;;15.45;2.67;;;7.30;99.90;;;;;;6145771;23;20088;-86
2021/05/05 10:08:51;;;;;;;8.05;1.98;;;6.60;99.90;;;;;;6145591;23;20018;-87
2021/05/05 10:11:23;;;;;;;22.83;2.30;;;6.30;99.90;;;;;;6144737;23;20014;-84
2021/05/05 10:13:52;;;;;;;22.53;3.90;;;6.30;99.90;;;;;;6145000;23;20072;-86
2021/05/05 10:16:20;;;;;;;29.02;3.97;;;6.40;99.90;;;;;;6144449;23;20438;-85
2021/05/05 10:18:48;;;;;;;20.30;3.35;;;6.70;99.90;;;;;;6143922;23;20018;-86
2021/05/05 10:21:18;;;;;;;12.30;1.52;;;6.90;99.90;;;;;;6120841;23;20018;-86
2021/05/05 10:23:44;;;;;;;9.32;1.88;;;6.70;99.90;;;;;;6122272;23;20448;-85
2021/05/05 10:26:11;;;;;;;20.83;2.22;;;6.50;99.90;;;;;;6071585;23;20486;-85
2021/05/05 10:28:39;;;;;;;22.55;3.45;;;6.50;99.90;;;;;;6146612;23;20141;-87
2021/05/05 10:31:09;;;;;;;20.00;3.95;;;6.70;99.90;;;;;;6119850;23;20018;-86
2021/05/05 10:33:39;;;;;;;22.52;3.22;;;6.90;99.90;;;;;;6144408;23;20948;-85
2021/05/05 10:36:28;;;;;;;24.77;4.10;;;7.10;99.90;;;;;;6091596;23;20006;-87
2021/05/05 10:38:54;;;;;;;18.65;3.10;;;7.30;99.90;;;;;;6096908;23;20018;-86
2021/05/05 10:41:22;;;;;;;23.60;3.05;;;7.30;99.90;;;;;;6115543;23;20014;-87
2021/05/05 10:43:59;;;;;;;22.52;4.00;;;7.20;99.90;;;;;;6095757;23;20105;-86
2021/05/05 10:46:39;;;;;;;31.65;4.05;;;7.30;99.90;;;;;;6094756;23;20096;-86
2021/05/05 10:49:15;;;;;;;36.25;4.90;;;7.50;99.90;;;;;;6119482;23;20080;-86
2021/05/05 10:51:44;;;;;;;21.17;3.53;;;7.60;99.90;;;;;;6143368;23;20025;-86
2021/05/05 10:54:15;;;;;;;31.83;4.10;;;7.70;99.90;;;;;;6096647;23;20018;-87
2021/05/05 10:56:43;;;;;;;28.65;5.00;;;7.70;99.90;;;;;;6145701;23;20014;-88
2021/05/05 10:59:12;;;;;;;55.30;27.77;;;7.80;99.90;;;;;;6144908;23;20014;-88
2021/05/05 11:01:48;;;;;;;21.35;3.55;;;8.00;99.90;;;;;;6118840;23;20045;-88
2021/05/05 11:04:14;;;;;;;20.50;3.55;;;8.00;99.90;;;;;;6096006;23;20069;-87
2021/05/05 11:06:45;;;;;;;22.38;3.63;;;8.00;99.90;;;;;;6121326;23;20018;-89
2021/05/05 11:09:11;;;;;;;31.50;3.88;;;8.20;99.90;;;;;;6120998;23;20129;-87
2021/05/05 11:11:53;;;;;;;26.17;4.47;;;8.40;99.90;;;;;;6123667;23;20045;-86
2021/05/05 11:14:30;;;;;;;22.38;3.88;;;8.40;99.90;;;;;;6098207;23;20014;-87
2021/05/05 11:17:09;;;;;;;27.83;4.47;;;8.50;99.90;;;;;;6099187;23;20041;-87
2021/05/05 11:19:41;;;;;;;22.33;4.03;;;8.50;99.90;;;;;;6098631;23;20464;-89
2021/05/05 11:22:23;;;;;;;28.02;3.22;;;8.60;99.90;;;;;;6123776;23;20018;-87
2021/05/05 11:24:50;;;;;;;21.02;3.28;;;8.60;99.90;;;;;;6123840;23;20018;-87
2021/05/05 11:27:37;;;;;;;21.65;4.20;;;8.50;99.90;;;;;;6147592;23;20025;-87
2021/05/05 11:30:29;;;;;;;24.15;3.42;;;8.50;99.90;;;;;;6147282;23;20014;-87
2021/05/05 11:32:56;;;;;;;23.90;4.22;;;8.70;99.90;;;;;;6099060;23;20329;-88
2021/05/05 11:35:29;;;;;;;23.33;5.15;;;8.80;99.90;;;;;;6124531;23;20017;-87
2021/05/05 11:38:19;;;;;;;24.77;4.63;;;8.80;99.90;;;;;;6124035;23;20014;-87
2021/05/05 11:41:00;;;;;;;21.48;3.58;;;8.90;99.90;;;;;;6147042;23;20014;-87
2021/05/05 11:43:27;;;;;;;24.60;4.28;;;9.00;99.90;;;;;;6098635;23;20010;-87
2021/05/05 11:45:56;;;;;;;25.20;4.85;;;9.20;99.90;;;;;;6122988;23;20014;-87
2021/05/05 11:48:42;;;;;;;23.48;3.55;;;9.20;99.90;;;;;;6147791;23;20041;-86
2021/05/05 11:51:23;;;;;;;23.83;4.30;;;9.10;99.90;;;;;;6147046;23;20014;-88
2021/05/05 11:53:49;;;;;;;29.35;4.85;;;9.10;99.90;;;;;;6146823;23;20014;-88
2021/05/05 11:56:26;;;;;;;31.85;4.63;;;9.30;99.90;;;;;;6097953;23;20038;-87
2021/05/05 11:59:10;;;;;;;33.42;4.57;;;9.30;99.90;;;;;;6146742;23;20050;-86
2021/05/05 12:01:38;;;;;;;25.98;4.85;;;9.30;99.90;;;;;;6097880;23;20103;-87
2021/05/05 12:04:16;;;;;;;26.08;4.55;;;9.30;99.90;;;;;;6123916;23;20010;-88
2021/05/05 12:06:56;;;;;;;35.38;5.15;;;9.40;99.90;;;;;;6146552;23;20089;-86
2021/05/05 12:09:24;;;;;;;27.55;3.95;;;9.60;99.90;;;;;;6118827;23;20551;-87
2021/05/05 12:12:06;;;;;;;21.55;3.50;;;9.50;99.90;;;;;;6121981;23;20486;-88
2021/05/05 12:14:32;;;;;;;28.10;4.82;;;9.40;99.90;;;;;;6145993;23;20014;-87
2021/05/05 12:17:13;;;;;;;24.02;4.63;;;9.30;99.90;;;;;;6097968;23;20089;-87
2021/05/05 12:19:39;;;;;;;25.50;3.83;;;9.40;99.90;;;;;;6119901;23;20020;-86
2021/05/05 12:22:12;;;;;;;29.10;4.05;;;9.40;99.90;;;;;;6146052;23;20017;-88
2021/05/05 12:24:38;;;;;;;24.35;4.20;;;9.30;99.90;;;;;;6121310;23;20043;-87
2021/05/05 12:27:08;;;;;;;26.42;3.85;;;9.30;99.90;;;;;;6098406;23;20017;-86
2021/05/05 12:29:34;;;;;;;26.48;3.92;;;9.20;99.90;;;;;;6123459;23;20043;-84
2021/05/05 12:32:00;;;;;;;27.67;5.20;;;9.30;99.90;;;;;;6171611;23;20045;-88
2021/05/05 12:34:25;;;;;;;24.77;4.05;;;9.40;99.90;;;;;;6146767;23;20018;-87
2021/05/05 12:36:54;;;;;;;26.67;3.60;;;9.50;99.90;;;;;;6098372;23;20770;-87
2021/05/05 12:39:21;;;;;;;23.15;4.45;;;9.40;99.90;;;;;;6097903;23;20519;-87
2021/05/05 12:41:53;;;;;;;22.80;4.30;;;9.40;99.90;;;;;;6121939;23;20021;-86
2021/05/05 12:44:20;;;;;;;30.52;5.47;;;9.30;99.90;;;;;;6146737;23;20036;-86
2021/05/05 12:47:06;;;;;;;24.45;3.78;;;9.40;99.90;;;;;;6122644;23;20455;-88
2021/05/05 12:49:37;;;;;;;24.98;5.03;;;9.50;99.90;;;;;;6145849;23;20014;-86
2021/05/05 12:52:22;;;;;;;27.58;4.40;;;9.40;99.90;;;;;;6096198;23;20040;-87
2021/05/05 12:54:48;;;;;;;23.70;3.55;;;9.60;99.90;;;;;;6147527;23;20006;-87
2021/05/05 12:57:19;;;;;;;17.52;3.45;;;9.40;99.90;;;;;;6098685;23;20507;-87
2021/05/05 12:59:47;;;;;;;20.25;3.58;;;9.40;99.90;;;;;;6097166;23;20025;-87
2021/05/05 13:02:23;;;;;;;19.17;2.90;;;9.40;99.90;;;;;;6091798;23;20014;-87